Ashley, Wisconsin
Current Conditions -  °F | °C
As of 9:55 PM on Sunday 21 Dec 2014 (Local Time) from KCWA Reporting Station
Unknown Precip Unknown Precip  
Wind Chill: 22°   Ceiling: 400
Heat Index: 32°   Visibility: 4mi
Dew Point: 32°   Wind: 14mph
Humidity: 100%   Direction: 160°SSE
Pressure: 29.88"   Gusts: NA
Location:  44.7605°N, 89.5918°W
Report Text: KCWA 220355Z AUTO 16012KT 4SM UP OVC004 00/00 A2988 RMK AO2
Loading
Personal Weather Stations






























Interactive Weather Map New forecast layout! Learn more

10-Day Weather Forecast

Advertisements
Track Severe Weather on mobile